createdAt,value
2022-09-28T00:01:22.022Z,62.37
2022-09-28T00:03:51.687Z,62.11
2022-09-28T00:06:22.636Z,62.22
2022-09-28T00:08:52.137Z,62.43
2022-09-28T00:11:22.092Z,62.11
2022-09-28T00:13:56.607Z,61.80
2022-09-28T00:16:28.635Z,62.37
2022-09-28T00:18:55.848Z,61.85
2022-09-28T00:21:28.678Z,62.02
2022-09-28T00:24:22.947Z,62.09
2022-09-28T00:26:58.168Z,62.16
2022-09-28T00:29:29.199Z,62.17
2022-09-28T00:32:03.400Z,62.01
2022-09-28T00:34:35.990Z,61.96
2022-09-28T00:37:05.800Z,62.06
2022-09-28T00:39:32.816Z,61.95
2022-09-28T00:41:59.926Z,62.50
2022-09-28T00:44:38.105Z,62.28
2022-09-28T00:47:17.561Z,62.34
2022-09-28T00:49:49.930Z,62.10
2022-09-28T00:53:14.238Z,62.02
2022-09-28T00:55:46.649Z,62.08
2022-09-28T00:58:31.205Z,62.20
2022-09-28T01:01:00.196Z,61.99
2022-09-28T01:03:29.314Z,62.08
2022-09-28T01:06:00.577Z,62.26
2022-09-28T01:08:30.204Z,62.24
2022-09-28T01:11:00.000Z,62.08
2022-09-28T01:13:28.350Z,62.59
2022-09-28T01:16:19.316Z,62.25
2022-09-28T01:19:21.636Z,61.88
2022-09-28T01:22:09.941Z,62.65
2022-09-28T01:24:51.853Z,62.21
2022-09-28T01:27:38.966Z,62.70
2022-09-28T01:30:08.782Z,62.17
2022-09-28T01:33:02.804Z,62.37
2022-09-28T01:35:35.467Z,62.17
2022-09-28T01:38:14.878Z,62.38
2022-09-28T01:40:43.194Z,62.87
2022-09-28T01:43:19.989Z,62.46
2022-09-28T01:45:58.761Z,62.34
2022-09-28T01:48:52.217Z,62.59
2022-09-28T01:51:32.190Z,62.11
2022-09-28T01:54:09.469Z,62.22
2022-09-28T01:56:57.265Z,62.61
2022-09-28T01:59:35.808Z,62.43
2022-09-28T02:02:15.752Z,62.40
2022-09-28T02:05:09.038Z,62.79
2022-09-28T02:07:47.374Z,62.65
2022-09-28T02:10:22.107Z,63.17
2022-09-28T02:12:54.581Z,63.22
2022-09-28T02:15:50.621Z,63.43
2022-09-28T02:18:17.858Z,63.43
2022-09-28T02:21:00.655Z,63.43
2022-09-28T02:23:35.078Z,62.96
2022-09-28T02:26:08.365Z,63.30
2022-09-28T02:28:35.396Z,63.73
2022-09-28T02:31:02.570Z,63.58
2022-09-28T02:33:40.769Z,63.16
2022-09-28T02:36:08.177Z,63.60
2022-09-28T02:38:36.849Z,63.10
2022-09-28T02:41:46.587Z,63.18
2022-09-28T02:44:34.120Z,63.84
2022-09-28T02:47:28.227Z,63.76
2022-09-28T02:50:30.180Z,63.22
2022-09-28T02:53:27.182Z,63.50
2022-09-28T02:55:56.739Z,63.88
2022-09-28T02:58:41.620Z,63.67
2022-09-28T03:01:20.516Z,64.43
2022-09-28T03:03:52.953Z,64.48
2022-09-28T03:06:36.732Z,64.66
2022-09-28T03:09:20.156Z,64.49
2022-09-28T03:11:57.471Z,64.57
2022-09-28T03:14:24.753Z,65.13
2022-09-28T03:16:51.822Z,64.81
2022-09-28T03:19:27.873Z,65.37
2022-09-28T03:21:55.710Z,65.38
2022-09-28T03:24:22.496Z,65.89
2022-09-28T03:26:49.292Z,65.97
2022-09-28T03:29:16.430Z,65.61
2022-09-28T03:31:44.303Z,65.46
2022-09-28T03:34:11.190Z,65.79
2022-09-28T03:36:38.275Z,66.29
2022-09-28T03:39:05.066Z,66.04
2022-09-28T03:41:31.982Z,65.84
2022-09-28T03:43:58.916Z,66.40
2022-09-28T03:46:25.784Z,66.16
2022-09-28T03:48:52.568Z,66.40
2022-09-28T03:51:19.693Z,66.16
2022-09-28T03:53:46.469Z,66.25
2022-09-28T03:56:15.785Z,66.81
2022-09-28T03:58:43.136Z,66.53
2022-09-28T04:01:16.818Z,66.94
2022-09-28T04:03:45.884Z,66.88
2022-09-28T04:06:14.023Z,66.77
2022-09-28T04:08:40.996Z,66.63
2022-09-28T04:11:07.949Z,66.44
2022-09-28T04:13:34.796Z,66.62
2022-09-28T04:16:02.125Z,66.92
2022-09-28T04:18:29.694Z,67.15
2022-09-28T04:21:09.042Z,67.63
2022-09-28T04:23:39.397Z,67.52
2022-09-28T04:26:19.016Z,67.49
2022-09-28T04:29:16.556Z,67.05
2022-09-28T04:31:47.849Z,67.99
2022-09-28T04:34:21.664Z,67.69
2022-09-28T04:36:49.194Z,67.05
2022-09-28T04:39:19.371Z,67.80
2022-09-28T04:41:48.935Z,67.45
2022-09-28T04:44:15.948Z,67.89
2022-09-28T04:46:43.071Z,67.66
2022-09-28T04:49:11.323Z,67.43
2022-09-28T04:51:38.234Z,68.06
2022-09-28T04:54:05.305Z,67.41
2022-09-28T04:56:32.248Z,67.63
2022-09-28T04:58:59.287Z,67.33
2022-09-28T05:01:26.521Z,67.45
2022-09-28T05:03:53.389Z,67.18
2022-09-28T05:06:21.175Z,67.71
2022-09-28T05:08:48.504Z,67.23
2022-09-28T05:11:15.493Z,66.93
2022-09-28T05:13:45.603Z,66.50
2022-09-28T05:16:16.499Z,66.57
2022-09-28T05:18:43.462Z,66.68
2022-09-28T05:21:15.752Z,65.80
2022-09-28T05:23:47.639Z,66.10
2022-09-28T05:26:15.072Z,66.31
2022-09-28T05:28:41.946Z,65.62
2022-09-28T05:31:09.054Z,65.42
2022-09-28T05:33:37.348Z,65.33
2022-09-28T05:36:04.571Z,65.64
2022-09-28T05:38:31.626Z,65.58
2022-09-28T05:40:59.694Z,65.67
2022-09-28T05:43:27.974Z,65.64
2022-09-28T05:45:55.923Z,65.49
2022-09-28T05:48:23.404Z,64.91
2022-09-28T05:50:54.127Z,64.76
2022-09-28T05:53:21.237Z,64.57
2022-09-28T05:55:48.636Z,64.52
2022-09-28T05:58:16.153Z,64.72
2022-09-28T06:00:43.921Z,64.17
2022-09-28T06:03:13.658Z,64.06
2022-09-28T06:05:41.625Z,63.70
2022-09-28T06:08:10.771Z,64.55
2022-09-28T06:10:38.767Z,64.46
2022-09-28T06:13:06.877Z,64.85
2022-09-28T06:15:36.192Z,65.65
2022-09-28T06:18:07.280Z,66.21
2022-09-28T06:20:37.282Z,66.77
2022-09-28T06:23:04.835Z,66.29
2022-09-28T06:25:32.282Z,66.28
2022-09-28T06:28:10.177Z,66.14
2022-09-28T06:30:38.594Z,66.16
2022-09-28T06:33:08.467Z,66.18
2022-09-28T06:35:35.383Z,66.62
2022-09-28T06:38:03.148Z,67.77
2022-09-28T06:40:31.065Z,67.89
2022-09-28T06:43:16.186Z,69.33
2022-09-28T06:45:43.924Z,68.71
2022-09-28T06:48:11.746Z,69.34
2022-09-28T06:50:41.491Z,69.06
2022-09-28T06:53:13.821Z,69.43
2022-09-28T06:55:49.972Z,69.64
2022-09-28T06:58:20.828Z,69.86
2022-09-28T07:00:51.763Z,70.05
2022-09-28T07:03:22.642Z,69.61
2022-09-28T07:05:53.957Z,70.39
2022-09-28T07:08:25.073Z,70.04
2022-09-28T07:10:56.753Z,70.08
2022-09-28T07:16:15.410Z,69.37
2022-09-28T07:18:42.655Z,69.91
2022-09-28T07:21:16.463Z,69.64
2022-09-28T07:23:53.818Z,69.58
2022-09-28T07:26:24.328Z,69.20
2022-09-28T07:28:52.558Z,70.45
2022-09-28T07:31:19.424Z,71.69
2022-09-28T07:33:47.521Z,71.03
2022-09-28T07:36:17.939Z,71.98
2022-09-28T07:38:44.854Z,75.14
2022-09-28T07:41:12.004Z,74.30
2022-09-28T07:43:41.118Z,74.83
2022-09-28T07:46:12.580Z,73.74
2022-09-28T07:48:43.930Z,72.92
2022-09-28T07:51:11.155Z,73.00
2022-09-28T07:53:40.757Z,72.74
2022-09-28T07:56:09.486Z,72.64
2022-09-28T07:58:39.706Z,72.20
2022-09-28T08:01:10.959Z,73.20
2022-09-28T08:03:39.481Z,73.65
2022-09-28T08:06:11.261Z,73.60
2022-09-28T08:08:44.881Z,72.95
2022-09-28T08:11:18.999Z,73.40
2022-09-28T08:13:46.615Z,73.23
2022-09-28T08:16:14.117Z,74.47
2022-09-28T08:18:42.281Z,73.87
2022-09-28T08:21:29.055Z,74.47
2022-09-28T08:23:56.498Z,73.84
2022-09-28T08:26:23.571Z,73.64
2022-09-28T08:28:51.276Z,73.91
2022-09-28T08:31:18.486Z,73.45
2022-09-28T08:33:45.369Z,73.18
2022-09-28T08:36:12.429Z,73.14
2022-09-28T08:38:39.540Z,73.75
2022-09-28T08:41:48.802Z,73.35
2022-09-28T08:44:25.336Z,72.61
2022-09-28T08:47:03.973Z,74.61
2022-09-28T08:49:43.768Z,74.17
2022-09-28T08:52:26.052Z,73.18
2022-09-28T08:55:37.390Z,73.92
2022-09-28T08:58:17.653Z,73.74
2022-09-28T09:00:50.390Z,74.65
2022-09-28T09:03:26.123Z,74.69
2022-09-28T09:06:19.289Z,74.19
2022-09-28T09:09:01.122Z,73.76
2022-09-28T09:11:46.165Z,75.83
2022-09-28T09:14:52.599Z,78.22
2022-09-28T09:17:41.581Z,77.73
2022-09-28T09:20:28.857Z,78.38
2022-09-28T09:23:17.753Z,78.86
2022-09-28T09:25:59.761Z,79.22
2022-09-28T09:28:38.340Z,78.86
2022-09-28T09:31:43.220Z,77.90
2022-09-28T09:34:35.451Z,78.22
2022-09-28T09:37:34.578Z,77.18
2022-09-28T09:40:55.478Z,77.83
2022-09-28T09:43:47.306Z,77.73
2022-09-28T09:46:33.578Z,77.63
2022-09-28T09:49:26.567Z,77.73
2022-09-28T09:52:14.757Z,78.66
2022-09-28T09:55:14.120Z,78.30
2022-09-28T09:57:53.304Z,77.02
2022-09-28T10:00:20.439Z,77.14
2022-09-28T10:02:49.925Z,77.45
2022-09-28T10:05:30.173Z,77.26
2022-09-28T10:08:08.921Z,77.39
2022-09-28T10:10:50.827Z,76.99
2022-09-28T10:13:17.909Z,76.98
2022-09-28T10:15:47.669Z,77.21
2022-09-28T10:18:21.048Z,77.80
2022-09-28T10:20:49.198Z,78.23
2022-09-28T10:23:30.880Z,77.89
2022-09-28T10:26:07.601Z,77.94
2022-09-28T10:28:48.637Z,77.87
2022-09-28T10:31:48.437Z,77.77
2022-09-28T10:34:19.743Z,77.98
2022-09-28T10:37:03.359Z,78.72
2022-09-28T10:39:55.116Z,78.06
2022-09-28T10:42:34.146Z,78.17
2022-09-28T10:45:20.536Z,78.42
2022-09-28T10:47:47.957Z,78.05
2022-09-28T10:50:24.288Z,79.18
2022-09-28T10:52:51.459Z,79.65
2022-09-28T10:55:21.342Z,78.84
2022-09-28T10:57:48.569Z,79.04
2022-09-28T11:00:41.849Z,78.71
2022-09-28T11:03:19.372Z,79.31
2022-09-28T11:05:59.398Z,78.51
2022-09-28T11:08:34.434Z,78.64
2022-09-28T11:11:19.581Z,78.82
2022-09-28T11:14:04.056Z,79.10
2022-09-28T11:16:36.546Z,79.16
2022-09-28T11:19:26.611Z,79.49
2022-09-28T11:21:53.723Z,79.44
2022-09-28T11:24:26.074Z,79.13
2022-09-28T11:26:59.238Z,79.50
2022-09-28T11:29:56.627Z,79.21
2022-09-28T11:32:30.823Z,78.44
2022-09-28T11:35:00.755Z,79.00
2022-09-28T11:38:03.543Z,78.21
2022-09-28T11:41:16.465Z,77.78
2022-09-28T11:44:14.905Z,77.98
2022-09-28T11:47:00.712Z,78.17
2022-09-28T11:49:37.809Z,77.09
2022-09-28T11:53:10.381Z,76.78
2022-09-28T11:56:22.460Z,76.95
2022-09-28T11:58:57.567Z,77.56
2022-09-28T12:01:48.964Z,77.53
2022-09-28T12:04:43.923Z,77.11
2022-09-28T12:07:22.432Z,76.09
2022-09-28T12:10:18.940Z,76.67
2022-09-28T12:13:01.014Z,77.08
2022-09-28T12:16:17.104Z,76.25
2022-09-28T12:18:57.632Z,76.45
2022-09-28T12:21:24.540Z,75.33
2022-09-28T12:24:14.823Z,75.56
2022-09-28T12:27:03.380Z,74.14
2022-09-28T12:29:37.618Z,74.70
2022-09-28T12:32:25.788Z,72.86
2022-09-28T12:34:53.101Z,72.81
2022-09-28T12:38:11.171Z,73.07
2022-09-28T12:40:45.543Z,72.71
2022-09-28T12:43:40.655Z,72.49
2022-09-28T12:46:32.569Z,72.01
2022-09-28T12:52:32.308Z,71.13
2022-09-28T12:55:23.896Z,70.70
2022-09-28T12:58:04.857Z,71.29
2022-09-28T13:01:04.873Z,70.67
2022-09-28T13:03:42.579Z,69.77
2022-09-28T13:06:37.780Z,70.54
2022-09-28T13:09:21.919Z,67.93
2022-09-28T13:12:19.484Z,66.08
2022-09-28T13:14:57.652Z,66.40
2022-09-28T13:17:45.358Z,66.36
2022-09-28T13:20:32.325Z,65.41
2022-09-28T13:23:34.614Z,65.36
2022-09-28T13:26:11.530Z,66.58
2022-09-28T13:28:40.843Z,65.34
2022-09-28T13:31:09.859Z,65.39
2022-09-28T13:33:45.135Z,64.46
2022-09-28T13:36:30.669Z,65.37
2022-09-28T13:39:01.881Z,65.93
2022-09-28T13:41:38.223Z,66.53
2022-09-28T13:44:13.711Z,67.24
2022-09-28T13:47:11.558Z,66.77
2022-09-28T13:50:18.603Z,67.17
2022-09-28T13:52:47.914Z,66.59
2022-09-28T13:55:25.222Z,66.33
2022-09-28T13:57:58.801Z,65.44
2022-09-28T14:00:51.596Z,65.68
2022-09-28T14:03:25.249Z,64.49
2022-09-28T14:06:10.993Z,66.05
2022-09-28T14:08:55.675Z,64.26
2022-09-28T14:11:34.955Z,62.89
2022-09-28T14:14:52.032Z,62.46
2022-09-28T14:17:22.323Z,61.38
2022-09-28T14:20:12.924Z,62.07
2022-09-28T14:23:00.825Z,62.19
2022-09-28T14:25:33.290Z,60.64
2022-09-28T14:28:26.409Z,60.36
2022-09-28T14:30:58.342Z,60.24
2022-09-28T14:33:33.560Z,61.43
2022-09-28T14:36:11.352Z,61.37
2022-09-28T14:39:07.049Z,61.04
2022-09-28T14:41:44.065Z,61.43
2022-09-28T14:44:16.423Z,60.78
2022-09-28T14:46:46.405Z,60.86
2022-09-28T14:49:19.737Z,61.01
2022-09-28T14:51:52.892Z,59.97
2022-09-28T14:54:23.515Z,60.64
2022-09-28T14:56:53.694Z,61.02
2022-09-28T14:59:36.543Z,59.93
2022-09-28T15:02:23.552Z,58.14
2022-09-28T15:04:53.401Z,58.78
2022-09-28T15:07:49.630Z,58.16
2022-09-28T15:10:39.748Z,58.98
2022-09-28T15:13:23.342Z,58.44
2022-09-28T15:15:59.790Z,59.12
2022-09-28T15:19:05.812Z,57.10
2022-09-28T15:21:39.883Z,57.28
2022-09-28T15:24:33.489Z,57.90
2022-09-28T15:27:04.799Z,57.26
2022-09-28T15:29:33.502Z,57.15
2022-09-28T15:32:00.986Z,57.20
2022-09-28T15:34:51.931Z,57.10
2022-09-28T15:37:40.238Z,57.55
2022-09-28T15:40:17.436Z,57.42
2022-09-28T15:42:46.235Z,56.89
2022-09-28T15:45:39.453Z,56.64
2022-09-28T15:48:31.887Z,56.79
2022-09-28T15:51:11.142Z,55.75
2022-09-28T15:54:19.648Z,56.22
2022-09-28T15:57:02.928Z,55.72
2022-09-28T15:59:39.395Z,56.43
2022-09-28T16:02:18.031Z,57.15
2022-09-28T16:05:01.814Z,56.32
2022-09-28T16:07:39.544Z,56.42
2022-09-28T16:10:12.565Z,54.85
2022-09-28T16:12:48.669Z,55.23
2022-09-28T16:15:27.868Z,55.74
2022-09-28T16:18:29.781Z,54.11
2022-09-28T16:21:31.610Z,54.56
2022-09-28T16:23:58.550Z,55.70
2022-09-28T16:26:36.196Z,55.58
2022-09-28T16:29:26.368Z,55.28
2022-09-28T16:31:55.963Z,54.20
2022-09-28T16:34:27.425Z,52.65
2022-09-28T16:36:54.744Z,53.40
2022-09-28T16:39:23.214Z,52.79
2022-09-28T16:42:01.842Z,54.19
2022-09-28T16:44:30.207Z,54.20
2022-09-28T16:47:00.402Z,53.64
2022-09-28T16:49:31.718Z,53.62
2022-09-28T16:52:12.468Z,55.26
2022-09-28T16:54:58.286Z,55.45
2022-09-28T16:57:25.506Z,55.08
2022-09-28T16:59:52.542Z,54.87
2022-09-28T17:05:13.555Z,56.16
2022-09-28T17:07:40.959Z,56.48
2022-09-28T17:10:49.760Z,56.18
2022-09-28T17:13:33.409Z,55.72
2022-09-28T17:16:09.062Z,56.21
2022-09-28T17:18:40.169Z,56.78
2022-09-28T17:21:16.021Z,57.58
2022-09-28T17:23:46.318Z,57.68
2022-09-28T17:26:34.895Z,58.29
2022-09-28T17:29:07.064Z,58.13
2022-09-28T17:31:35.526Z,58.09
2022-09-28T17:34:02.911Z,58.91
2022-09-28T17:36:30.727Z,58.65
2022-09-28T17:38:58.891Z,58.45
2022-09-28T17:41:26.151Z,58.34
2022-09-28T17:43:53.955Z,59.63
2022-09-28T17:46:37.438Z,59.21
2022-09-28T17:49:07.392Z,58.69
2022-09-28T17:51:39.404Z,59.10
2022-09-28T17:54:08.445Z,59.31
2022-09-28T17:56:36.958Z,59.05
2022-09-28T17:59:12.814Z,58.85
2022-09-28T18:01:41.256Z,58.46
2022-09-28T18:04:23.066Z,59.18
2022-09-28T18:06:59.323Z,58.70
2022-09-28T18:09:26.538Z,59.65
2022-09-28T18:12:04.162Z,59.57
2022-09-28T18:14:31.980Z,59.64
2022-09-28T18:16:59.690Z,59.72
2022-09-28T18:19:31.809Z,60.29
2022-09-28T18:22:02.052Z,60.51
2022-09-28T18:24:32.635Z,60.73
2022-09-28T18:27:01.209Z,60.18
2022-09-28T18:29:32.906Z,60.06
2022-09-28T18:32:02.007Z,60.36
2022-09-28T18:34:30.516Z,61.00
2022-09-28T18:36:57.981Z,60.91
2022-09-28T18:39:26.728Z,61.05
2022-09-28T18:41:54.059Z,60.94
2022-09-28T18:44:21.522Z,61.33
2022-09-28T18:46:48.732Z,61.23
2022-09-28T18:49:16.099Z,61.35
2022-09-28T18:51:43.536Z,61.52
2022-09-28T18:54:11.434Z,60.74
2022-09-28T18:56:38.832Z,60.98
2022-09-28T18:59:12.383Z,60.98
2022-09-28T19:01:42.098Z,60.59
2022-09-28T19:04:11.615Z,61.15
2022-09-28T19:06:42.889Z,61.27
2022-09-28T19:09:11.179Z,61.80
2022-09-28T19:11:38.332Z,62.03
2022-09-28T19:14:05.762Z,62.33
2022-09-28T19:16:36.081Z,62.03
2022-09-28T19:19:03.546Z,62.11
2022-09-28T19:21:31.652Z,61.74
2022-09-28T19:24:04.460Z,62.93
2022-09-28T19:26:32.954Z,62.94
2022-09-28T19:29:02.887Z,62.93
2022-09-28T19:31:31.077Z,62.90
2022-09-28T19:33:59.053Z,63.55
2022-09-28T19:36:28.655Z,62.82
2022-09-28T19:38:59.481Z,63.96
2022-09-28T19:41:43.679Z,63.86
2022-09-28T19:44:27.159Z,63.90
2022-09-28T19:47:09.837Z,64.21
2022-09-28T19:49:40.760Z,64.08
2022-09-28T19:52:16.928Z,63.82
2022-09-28T19:54:57.081Z,63.95
2022-09-28T19:57:28.017Z,64.00
2022-09-28T20:00:03.293Z,64.09
2022-09-28T20:02:31.057Z,63.85
2022-09-28T20:04:58.366Z,63.26
2022-09-28T20:07:25.825Z,63.60
2022-09-28T20:09:53.325Z,63.73
2022-09-28T20:12:21.142Z,63.51
2022-09-28T20:14:48.357Z,63.77
2022-09-28T20:17:15.439Z,64.17
2022-09-28T20:19:42.691Z,64.25
2022-09-28T20:22:11.131Z,63.67
2022-09-28T20:24:38.401Z,64.21
2022-09-28T20:27:06.203Z,64.89
2022-09-28T20:29:33.757Z,64.57
2022-09-28T20:32:04.011Z,65.00
2022-09-28T20:34:33.974Z,65.05
2022-09-28T20:37:02.598Z,65.50
2022-09-28T20:39:31.559Z,65.28
2022-09-28T20:42:00.978Z,65.69
2022-09-28T20:44:30.622Z,65.71
2022-09-28T20:46:57.880Z,66.24
2022-09-28T20:49:28.302Z,66.12
2022-09-28T20:51:55.909Z,66.34
2022-09-28T20:54:23.359Z,66.38
2022-09-28T20:56:50.773Z,66.22
2022-09-28T20:59:18.224Z,66.06
2022-09-28T21:01:45.697Z,66.27
2022-09-28T21:04:13.479Z,66.49
2022-09-28T21:06:42.872Z,66.65
2022-09-28T21:09:12.425Z,66.31
2022-09-28T21:11:39.924Z,67.02
2022-09-28T21:14:10.429Z,66.39
2022-09-28T21:16:38.212Z,67.34
2022-09-28T21:19:06.284Z,67.23
2022-09-28T21:21:33.732Z,67.38
2022-09-28T21:24:02.379Z,67.10
2022-09-28T21:26:31.417Z,67.22
2022-09-28T21:29:02.562Z,67.38
2022-09-28T21:31:42.631Z,67.26
2022-09-28T21:34:19.327Z,67.26
2022-09-28T21:36:53.555Z,67.17
2022-09-28T21:39:20.941Z,67.73
2022-09-28T21:41:48.114Z,67.52
2022-09-28T21:44:15.228Z,67.87
2022-09-28T21:46:42.634Z,67.91
2022-09-28T21:49:10.443Z,68.28
2022-09-28T21:51:38.100Z,67.93
2022-09-28T21:54:16.160Z,68.14
2022-09-28T22:01:37.463Z,68.98
2022-09-28T22:04:13.451Z,68.89
2022-09-28T22:06:40.912Z,68.82
2022-09-28T22:17:06.946Z,69.40
2022-09-28T22:19:36.861Z,69.19
2022-09-28T22:22:12.073Z,69.33
2022-09-28T22:24:39.150Z,69.03
2022-09-28T22:35:18.130Z,69.36
2022-09-28T22:41:07.446Z,69.94
2022-09-28T22:43:44.345Z,69.26
2022-09-28T22:56:49.245Z,70.22
2022-09-28T23:04:30.488Z,70.12
2022-09-28T23:06:57.700Z,69.90
2022-09-28T23:19:21.440Z,69.71
2022-09-28T23:22:10.495Z,69.66
2022-09-28T23:25:17.718Z,69.73
2022-09-28T23:32:54.007Z,69.71
2022-09-28T23:38:54.982Z,68.95
2022-09-28T23:46:23.367Z,69.71
2022-09-28T23:48:59.340Z,69.50
